Time;durP1;ratioP1;P1;durP2;ratioP2;P2;SDS_P1;SDS_P2;PMS_P1;PMS_P2;Temp;Humidity;BMP_temperature;BMP_pressure;BME280_temperature;BME280_humidity;BME280_pressure;Samples;Min_cycle;Max_cycle;Signal;HPM_P1;HPM_P2
2023/07/15 00:01:20;;;;;;;6.35;1.88;;;;;;;21.68;51.27;100293.22;5002022;28;20042;-69
2023/07/15 00:03:46;;;;;;;10.68;2.72;;;;;;;21.53;51.61;100288.50;4999341;28;20077;-70
2023/07/15 00:06:12;;;;;;;6.80;2.55;;;;;;;21.57;51.50;100297.56;4998858;28;20128;-70
2023/07/15 00:08:37;;;;;;;4.22;1.80;;;;;;;21.50;51.60;100291.63;5014045;28;20032;-70
2023/07/15 00:11:03;;;;;;;4.50;1.88;;;;;;;21.51;51.44;100286.13;5000135;28;20392;-70
2023/07/15 00:13:29;;;;;;;11.13;3.03;;;;;;;21.39;51.92;100290.66;4992584;28;20101;-70
2023/07/15 00:15:56;;;;;;;7.43;2.00;;;;;;;21.41;51.97;100291.19;4997601;28;20029;-70
2023/07/15 00:18:21;;;;;;;4.75;2.00;;;;;;;21.37;51.97;100290.09;4994241;28;20038;-70
2023/07/15 00:20:47;;;;;;;4.68;1.92;;;;;;;21.34;52.00;100301.09;4995648;28;20037;-70
2023/07/15 00:23:25;;;;;;;7.85;2.05;;;;;;;21.27;52.79;100289.94;4999116;28;20031;-70
2023/07/15 00:25:53;;;;;;;8.10;2.95;;;;;;;21.21;52.62;100289.06;4998386;28;20547;-70
2023/07/15 00:28:20;;;;;;;6.25;1.98;;;;;;;21.26;52.74;100280.41;5001075;28;20037;-70
2023/07/15 00:30:45;;;;;;;4.95;2.42;;;;;;;21.17;53.09;100283.47;5000184;28;20076;-69
2023/07/15 00:33:16;;;;;;;7.82;2.30;;;;;;;21.18;53.48;100287.69;5000347;28;20030;-69
2023/07/15 00:35:43;;;;;;;6.85;2.05;;;;;;;21.11;53.41;100280.97;4997857;28;20329;-69
2023/07/15 00:38:10;;;;;;;4.63;2.10;;;;;;;21.12;53.56;100287.84;5017702;28;20045;-69
2023/07/15 00:40:47;;;;;;;9.65;2.22;;;;;;;21.19;53.27;100270.84;4999744;28;20048;-70
2023/07/15 00:43:50;;;;;;;7.40;3.10;;;;;;;21.14;53.15;100278.66;5002885;28;20088;-70
2023/07/15 00:46:22;;;;;;;5.47;1.95;;;;;;;21.16;53.17;100273.16;5010004;28;20048;-70
2023/07/15 00:48:56;;;;;;;5.15;2.28;;;;;;;21.13;53.27;100273.63;4991842;28;20033;-70
2023/07/15 00:51:23;;;;;;;4.53;2.15;;;;;;;21.03;53.56;100270.81;5006400;28;20057;-69
2023/07/15 00:53:49;;;;;;;6.53;2.17;;;;;;;21.00;53.43;100275.53;5003157;28;20033;-69
2023/07/15 00:56:16;;;;;;;5.78;1.88;;;;;;;21.04;53.42;100267.97;4994231;28;20034;-69
2023/07/15 00:58:41;;;;;;;6.45;2.17;;;;;;;21.00;53.79;100277.34;5022458;28;20577;-69
2023/07/15 01:01:10;;;;;;;6.28;1.67;;;;;;;20.98;54.38;100271.53;5004598;28;20120;-69
2023/07/15 01:03:44;;;;;;;6.43;1.83;;;;;;;20.98;54.12;100264.44;4986012;28;20033;-69
2023/07/15 01:06:10;;;;;;;;;;;;;;;21.02;54.31;100267.41;4989677;28;20033;-69
2023/07/15 01:08:35;;;;;;;;;;;;;;;20.94;54.17;100265.13;5010989;28;19913;-69
2023/07/15 01:11:00;;;;;;;;;;;;;;;20.87;54.85;100265.28;5013324;28;19937;-70
2023/07/15 01:13:26;;;;;;;;;;;;;;;20.89;54.61;100259.75;5012261;28;20055;-70
2023/07/15 01:15:51;;;;;;;;;;;;;;;20.92;54.68;100269.84;5008417;28;19967;-69
2023/07/15 01:18:16;;;;;;;;;;;;;;;20.80;54.65;100257.53;5011590;28;20294;-69
2023/07/15 01:20:42;;;;;;;;;;;;;;;20.78;54.93;100258.81;5028562;28;19947;-69
2023/07/15 01:23:07;;;;;;;;;;;;;;;20.80;55.04;100262.00;5028773;28;20394;-69
2023/07/15 01:25:32;;;;;;;;;;;;;;;20.87;55.02;100256.56;5024316;28;20145;-69
2023/07/15 01:27:57;;;;;;;;;;;;;;;20.74;55.28;100253.22;5026583;28;20500;-69
2023/07/15 01:30:23;;;;;;;;;;;;;;;20.62;55.71;100252.44;5009313;28;20434;-69
2023/07/15 01:32:50;;;;;;;;;;;;;;;20.64;55.62;100252.22;5014941;28;20043;-69
2023/07/15 01:35:15;;;;;;;;;;;;;;;20.63;55.76;100255.91;5027826;28;19944;-69
2023/07/15 01:37:41;;;;;;;;;;;;;;;20.67;55.48;100254.41;5026056;28;19921;-69
2023/07/15 01:40:09;;;;;;;;;;;;;;;20.64;55.37;100254.84;5013813;28;19932;-69
2023/07/15 01:42:35;;;;;;;;;;;;;;;20.55;55.84;100254.38;4997079;28;20516;-69
2023/07/15 01:45:04;;;;;;;;;;;;;;;20.59;55.89;100251.06;5012453;28;19917;-68
2023/07/15 01:47:29;;;;;;;;;;;;;;;20.59;56.21;100258.19;5014202;28;20286;-69
2023/07/15 01:49:54;;;;;;;;;;;;;;;20.55;56.24;100249.13;5013648;28;19921;-69
2023/07/15 01:52:20;;;;;;;;;;;;;;;20.48;56.43;100251.91;5018401;28;19912;-69
2023/07/15 01:54:45;;;;;;;;;;;;;;;20.46;56.38;100248.72;5016067;28;19917;-69
2023/07/15 01:57:10;;;;;;;;;;;;;;;20.43;56.65;100249.16;5031756;28;20001;-69
2023/07/15 01:59:36;;;;;;;;;;;;;;;20.38;56.55;100244.63;5004363;28;19924;-69
2023/07/15 02:02:01;;;;;;;;;;;;;;;20.33;56.96;100244.50;5014014;28;19925;-69
2023/07/15 02:04:26;;;;;;;;;;;;;;;20.30;57.48;100252.09;5012634;28;19927;-69
2023/07/15 02:06:52;;;;;;;;;;;;;;;20.29;57.49;100247.88;5029741;28;19999;-69
2023/07/15 02:09:18;;;;;;;;;;;;;;;20.32;56.81;100240.28;5013287;28;19925;-70
2023/07/15 02:11:43;;;;;;;;;;;;;;;20.34;56.75;100240.03;5013299;28;19917;-70
2023/07/15 02:14:09;;;;;;;;;;;;;;;20.34;57.35;100240.03;5026290;28;19944;-70
2023/07/15 02:16:34;;;;;;;;;;;;;;;20.28;57.17;100236.50;5032120;28;20361;-70
2023/07/15 02:19:00;;;;;;;;;;;;;;;20.22;57.43;100237.44;4994585;28;19957;-69
2023/07/15 02:21:25;;;;;;;;;;;;;;;20.21;57.07;100243.75;5007363;28;19925;-69
2023/07/15 02:23:52;;;;;;;;;;;;;;;20.12;57.97;100242.53;5029536;28;20030;-69
2023/07/15 02:26:17;;;;;;;;;;;;;;;20.18;58.03;100237.13;5028909;28;20329;-69
2023/07/15 02:28:43;;;;;;;;;;;;;;;20.15;57.40;100231.53;5013220;28;19918;-70
2023/07/15 02:31:09;;;;;;;;;;;;;;;20.14;57.38;100232.56;5013496;28;19913;-69
2023/07/15 02:33:34;;;;;;;;;;;;;;;20.14;57.20;100232.56;5029419;28;20006;-69
2023/07/15 02:35:59;;;;;;;;;;;;;;;20.11;57.23;100231.19;5011068;28;21621;-70
2023/07/15 02:38:25;;;;;;;;;;;;;;;20.03;57.69;100239.44;5016823;28;19917;-70
2023/07/15 02:40:50;;;;;;;;;;;;;;;20.05;57.92;100229.50;5029764;28;19924;-70
2023/07/15 02:43:16;;;;;;;;;;;;;;;19.99;58.04;100225.94;5012891;28;19936;-69
2023/07/15 02:45:41;;;;;;;;;;;;;;;19.98;57.49;100234.06;5029467;28;19921;-69
2023/07/15 02:48:06;;;;;;;;;;;;;;;19.99;57.79;100227.78;5014651;28;19921;-70
2023/07/15 02:50:32;;;;;;;;;;;;;;;19.94;57.91;100235.56;5011668;28;19960;-70
2023/07/15 02:52:57;;;;;;;;;;;;;;;19.98;58.12;100232.22;5011553;28;19939;-69
2023/07/15 02:55:23;;;;;;;;;;;;;;;20.00;57.86;100229.38;5031680;28;19917;-69
2023/07/15 02:57:48;;;;;;;;;;;;;;;19.92;57.68;100227.13;5029301;28;19921;-69
2023/07/15 03:00:16;;;;;;;;;;;;;;;19.89;58.55;100228.38;5026505;28;19920;-69
2023/07/15 03:02:47;;;;;;;;;;;;;;;19.87;58.37;100227.00;5012684;28;19927;-70
2023/07/15 03:05:13;;;;;;;;;;;;;;;19.93;57.89;100226.88;5012540;28;20296;-69
2023/07/15 03:07:43;;;;;;;;;;;;;;;19.95;57.77;100232.72;5015001;28;19920;-69
2023/07/15 03:10:09;;;;;;;;;;;;;;;19.89;58.03;100225.75;5026810;28;19948;-69
2023/07/15 03:12:34;;;;;;;;;;;;;;;19.88;57.99;100225.97;5012938;28;20537;-69
2023/07/15 03:14:59;;;;;;;;;;;;;;;19.85;58.89;100229.84;5022353;28;19925;-72
2023/07/15 03:17:25;;;;;;;;;;;;;;;19.84;59.36;100233.53;5012172;28;19920;-69
2023/07/15 03:19:51;;;;;;;;;;;;;;;19.83;59.40;100224.84;5028237;28;20020;-69
2023/07/15 03:22:17;;;;;;;;;;;;;;;19.82;59.14;100231.13;5027250;28;19963;-69
2023/07/15 03:24:42;;;;;;;;;;;;;;;19.79;59.94;100234.22;5010146;28;20018;-69
2023/07/15 03:27:08;;;;;;;;;;;;;;;19.77;60.22;100235.47;5012962;28;19931;-69
2023/07/15 03:29:33;;;;;;;;;;;;;;;19.75;59.05;100232.28;5015722;28;19966;-69
2023/07/15 03:31:59;;;;;;;;;;;;;;;19.69;59.26;100244.50;5025637;28;19920;-69
2023/07/15 03:34:24;;;;;;;;;;;;;;;19.75;60.65;100240.97;5012589;28;19921;-70
2023/07/15 03:36:49;;;;;;;;;;;;;;;19.68;59.13;100245.50;5017264;28;19913;-69
2023/07/15 03:39:15;;;;;;;;;;;;;;;19.61;60.55;100237.75;5010077;28;19917;-70
2023/07/15 03:41:40;;;;;;;;;;;;;;;19.59;60.46;100239.00;5014217;28;19924;-69
2023/07/15 03:44:05;;;;;;;;;;;;;;;19.56;61.23;100242.88;5010183;28;20466;-69
2023/07/15 03:46:31;;;;;;;;;;;;;;;19.55;61.87;100243.94;5024793;28;20461;-69
2023/07/15 03:48:56;;;;;;;;;;;;;;;19.53;62.87;100245.97;5022098;28;19971;-69
2023/07/15 03:51:21;;;;;;;;;;;;;;;19.48;62.59;100245.88;5013508;28;19917;-69
2023/07/15 03:53:47;;;;;;;;;;;;;;;19.46;60.82;100245.28;5012037;28;20381;-70
2023/07/15 03:56:12;;;;;;;;;;;;;;;19.48;61.68;100240.59;5011130;28;19919;-71
2023/07/15 03:58:37;;;;;;;;;;;;;;;19.47;63.06;100238.19;5014304;28;19912;-69
2023/07/15 04:01:02;;;;;;;;;;;;;;;19.45;63.69;100233.16;5031098;28;19917;-69
2023/07/15 04:03:28;;;;;;;;;;;;;;;19.44;62.16;100239.47;5021398;28;19925;-69
2023/07/15 04:05:53;;;;;;;;;;;;;;;19.43;62.13;100235.22;5030987;28;19995;-69
2023/07/15 04:08:18;;;;;;;;;;;;;;;19.42;63.15;100234.44;5030952;28;20015;-69
2023/07/15 04:10:47;;;;;;;;;;;;;;;19.41;63.85;100226.78;5025831;28;19956;-69
2023/07/15 04:13:12;;;;;;;;;;;;;;;19.41;63.76;100239.91;5028125;28;20394;-69
2023/07/15 04:15:38;;;;;;;;;;;;;;;19.40;64.36;100239.13;5009794;28;19963;-69
2023/07/15 04:18:03;;;;;;;;;;;;;;;19.43;63.61;100229.97;5011328;28;20360;-69
2023/07/15 04:20:28;;;;;;;;;;;;;;;19.39;63.94;100228.84;5026112;28;20454;-69
2023/07/15 04:22:54;;;;;;;;;;;;;;;19.36;64.86;100231.91;5025650;28;19917;-69
2023/07/15 04:25:20;;;;;;;;;;;;;;;19.35;65.34;100236.38;5026228;28;20395;-69
2023/07/15 04:27:45;;;;;;;;;;;;;;;19.36;65.52;100240.56;5024816;28;19920;-69
2023/07/15 04:30:11;;;;;;;;;;;;;;;19.38;66.01;100237.72;5012950;28;19971;-69
2023/07/15 04:32:36;;;;;;;;;;;;;;;19.38;66.19;100238.56;5012363;28;19913;-69
2023/07/15 04:35:02;;;;;;;;;;;;;;;19.41;66.51;100243.34;5013127;28;19963;-69
2023/07/15 04:37:27;;;;;;;;;;;;;;;19.43;66.97;100235.22;5011441;28;19909;-69
2023/07/15 04:39:53;;;;;;;;;;;;;;;19.45;66.97;100233.97;5030339;28;19917;-69
2023/07/15 04:42:18;;;;;;;;;;;;;;;19.48;67.45;100247.66;5027896;28;19924;-69
2023/07/15 04:44:43;;;;;;;;;;;;;;;19.51;67.39;100240.13;5026667;28;19922;-69
2023/07/15 04:47:09;;;;;;;;;;;;;;;19.55;67.57;100248.38;5029291;28;19924;-69
2023/07/15 04:49:34;;;;;;;;;;;;;;;19.56;67.56;100258.66;5028169;28;19955;-69
2023/07/15 04:52:00;;;;;;;;;;;;;;;19.58;68.10;100246.09;5030256;28;19917;-69
2023/07/15 04:54:25;;;;;;;;;;;;;;;19.60;68.92;100248.50;5021915;28;20619;-69
2023/07/15 04:56:51;;;;;;;;;;;;;;;19.63;69.01;100246.22;5024938;28;19927;-69
2023/07/15 04:59:16;;;;;;;;;;;;;;;19.68;69.32;100242.09;5013407;28;19921;-69
2023/07/15 05:01:41;;;;;;;;;;;;;;;19.73;69.19;100239.59;5011514;28;19925;-69
2023/07/15 05:04:07;;;;;;;;;;;;;;;19.77;69.11;100241.53;5012340;28;20590;-69
2023/07/15 05:06:33;;;;;;;;;;;;;;;19.83;68.88;100237.19;5027326;28;20340;-69
2023/07/15 05:08:58;;;;;;;;;;;;;;;19.94;67.63;100239.00;5013583;28;19917;-69
2023/07/15 05:11:27;;;;;;;;;;;;;;;20.00;67.84;100238.09;5015447;28;19945;-69
2023/07/15 05:13:52;;;;;;;;;;;;;;;20.08;67.48;100239.56;5014782;28;20019;-69
2023/07/15 05:16:17;;;;;;;;;;;;;;;20.15;67.28;100242.03;5026830;28;19996;-69
2023/07/15 05:18:43;;;;;;;;;;;;;;;20.23;67.11;100244.34;5025107;28;19966;-69
2023/07/15 05:21:09;;;;;;;;;;;;;;;20.37;65.90;100248.28;5028931;28;20331;-69
2023/07/15 05:23:34;;;;;;;;;;;;;;;20.46;66.13;100255.81;5028445;28;19963;-69
2023/07/15 05:26:00;;;;;;;;;;;;;;;20.52;66.33;100255.66;5031426;28;19913;-69
2023/07/15 05:28:30;;;;;;;;;;;;;;;20.72;62.77;100250.00;5029066;28;19913;-70
2023/07/15 05:31:02;;;;;;;;;;;;;;;20.84;62.31;100249.94;5034494;28;20008;-69
2023/07/15 05:33:28;;;;;;;;;;;;;;;21.03;60.63;100252.38;5024625;28;19917;-70
2023/07/15 05:35:54;;;;;;;;;;;;;;;21.19;60.45;100252.38;5018921;28;19921;-69
2023/07/15 05:38:23;;;;;;;;;;;;;;;21.36;59.01;100259.47;5019296;28;19912;-70
2023/07/15 05:40:49;;;;;;;;;;;;;;;21.48;59.19;100249.69;5017331;28;19967;-71
2023/07/15 05:43:15;;;;;;;;;;;;;;;21.63;58.72;100241.19;5016545;28;19955;-69
2023/07/15 05:45:40;;;;;;;;;;;;;;;21.76;58.25;100246.13;5027654;28;19935;-70
2023/07/15 05:48:06;;;;;;;;;;;;;;;21.77;58.83;100236.34;5019317;28;20024;-69
2023/07/15 05:50:34;;;;;;;;;;;;;;;21.90;57.10;100243.13;5033065;28;19921;-69
2023/07/15 05:53:00;;;;;;;;;;;;;;;;;;5030895;28;20386;-70
2023/07/15 05:55:25;;;;;;;;;;;;;;;22.34;54.60;100251.09;5027954;28;19963;-69
2023/07/15 05:57:51;;;;;;;;;;;;;;;22.62;54.46;100260.63;5015012;28;19912;-71
2023/07/15 06:00:16;;;;;;;;;;;;;;;22.84;54.70;100259.75;5009526;28;20670;-69
2023/07/15 06:02:41;;;;;;;;;;;;;;;23.05;53.57;100253.63;5029420;28;19920;-70
2023/07/15 06:05:07;;;;;;;;;;;;;;;23.31;51.95;100257.25;5028611;28;19961;-70
2023/07/15 06:07:32;;;;;;;;;;;;;;;23.43;51.99;100272.16;5029763;28;20011;-69
2023/07/15 06:09:58;;;;;;;;;;;;;;;23.61;51.70;100261.16;5027888;28;19924;-70
2023/07/15 06:12:23;;;;;;;;;;;;;;;23.84;51.61;100262.63;5015674;28;19913;-70
2023/07/15 06:14:48;;;;;;;;;;;;;;;24.06;51.28;100264.34;5026744;28;19925;-69
2023/07/15 06:17:14;;;;;;;;;;;;;;;23.97;52.10;100260.59;5029195;28;19916;-69
2023/07/15 06:19:39;;;;;;;;;;;;;;;23.80;52.93;100263.44;5032106;28;19917;-69
2023/07/15 06:22:05;;;;;;;;;;;;;;;24.10;49.35;100266.19;5030370;28;19917;-71
2023/07/15 06:24:31;;;;;;;;;;;;;;;24.26;50.32;100258.31;4998566;28;19917;-70
2023/07/15 06:26:56;;;;;;;;;;;;;;;24.44;50.17;100257.84;5017762;28;20367;-70
2023/07/15 06:29:24;;;;;;;;;;;;;;;24.76;48.75;100267.47;5014298;28;20011;-70
2023/07/15 06:31:50;;;;;;;;;;;;;;;24.81;48.64;100259.53;5020614;28;19932;-70
2023/07/15 06:34:15;;;;;;;;;;;;;;;24.95;47.45;100249.19;5012573;28;20306;-70
2023/07/15 06:36:40;;;;;;;;;;;;;;;25.24;46.29;100254.78;5017517;28;19979;-70
2023/07/15 06:39:06;;;;;;;;;;;;;;;25.69;47.29;100264.78;5026186;28;19921;-70
2023/07/15 06:41:31;;;;;;;;;;;;;;;25.50;46.88;100261.91;4997674;28;19917;-71
2023/07/15 06:43:56;;;;;;;;;;;;;;;25.10;48.45;100260.88;5029487;28;19943;-70
2023/07/15 06:46:24;;;;;;;;;;;;;;;25.37;47.12;100271.22;5017305;28;19921;-70
2023/07/15 06:48:50;;;;;;;;;;;;;;;25.66;46.39;100278.63;5030162;28;20358;-69
2023/07/15 06:51:15;;;;;;;;;;;;;;;25.44;45.97;100269.09;5030284;28;19928;-70
2023/07/15 06:53:40;;;;;;;;;;;;;;;25.59;47.97;100278.88;5025776;28;19925;-70
2023/07/15 06:56:06;;;;;;;;;;;;;;;25.53;48.20;100269.34;5019657;28;19909;-70
2023/07/15 06:58:31;;;;;;;;;;;;;;;25.49;46.87;100268.28;5028141;28;20015;-70
2023/07/15 07:00:56;;;;;;;;;;;;;;;25.33;47.77;100257.69;5029919;28;19912;-70
2023/07/15 07:03:22;;;;;;;;;;;;;;;25.32;49.90;100253.44;5020801;28;19925;-70
2023/07/15 07:05:47;;;;;;;;;;;;;;;25.19;48.18;100265.38;5014791;28;20367;-70
2023/07/15 07:08:12;;;;;;;;;;;;;;;25.10;50.70;100266.16;5008873;28;19917;-69
2023/07/15 07:10:38;;;;;;;;;;;;;;;24.94;50.73;100278.63;5026103;28;20047;-69
2023/07/15 07:13:04;;;;;;;;;;;;;;;24.75;50.95;100283.63;4995460;28;20017;-69
2023/07/15 07:15:30;;;;;;;;;;;;;;;24.66;52.49;100275.41;5017566;28;19920;-70
2023/07/15 07:17:55;;;;;;;;;;;;;;;24.70;50.16;100270.38;5027895;28;19913;-69
2023/07/15 07:20:20;;;;;;;;;;;;;;;24.72;51.32;100263.75;5025068;28;20473;-69
2023/07/15 07:22:46;;;;;;;;;;;;;;;24.66;51.45;100262.16;5024482;28;20003;-69
2023/07/15 07:25:11;;;;;;;;;;;;;;;24.61;51.22;100255.00;5015810;28;20298;-69
2023/07/15 07:27:37;;;;;;;;;;;;;;;24.53;52.85;100254.72;5027633;28;19917;-69
2023/07/15 07:30:02;;;;;;;;;;;;;;;24.74;51.29;100258.19;5026089;28;20298;-69
2023/07/15 07:32:28;;;;;;;;;;;;;;;24.70;50.70;100257.13;5015163;28;20567;-70
2023/07/15 07:34:53;;;;;;;;;;;;;;;24.75;50.26;100259.78;5024135;28;19921;-70
2023/07/15 07:37:19;;;;;;;;;;;;;;;24.94;50.37;100268.81;5009101;28;20525;-70
2023/07/15 07:39:44;;;;;;;;;;;;;;;24.84;50.78;100266.16;5023606;28;19956;-70
2023/07/15 07:42:09;;;;;;;;;;;;;;;24.94;51.60;100273.31;5011909;28;19927;-70
2023/07/15 07:44:35;;;;;;;;;;;;;;;24.96;51.94;100274.66;5027954;28;19916;-70
2023/07/15 07:47:00;;;;;;;;;;;;;;;24.99;50.83;100278.63;5026044;28;20382;-70
2023/07/15 07:49:26;;;;;;;;;;;;;;;24.89;51.87;100283.94;5029600;28;20399;-70
2023/07/15 07:51:51;;;;;;;;;;;;;;;24.85;52.12;100286.31;5029179;28;19916;-70
2023/07/15 07:54:16;;;;;;;;;;;;;;;24.85;51.53;100288.97;5011971;28;20551;-70
2023/07/15 07:56:41;;;;;;;;;;;;;;;24.91;51.50;100295.84;5015297;28;20355;-70
2023/07/15 07:59:07;;;;;;;;;;;;;;;25.00;51.21;100286.31;5011312;28;19979;-70
2023/07/15 08:01:33;;;;;;;;;;;;;;;25.16;51.68;100288.97;5013182;28;20398;-70
2023/07/15 08:03:58;;;;;;;;;;;;;;;25.79;49.38;100292.09;5009312;28;19923;-70
2023/07/15 08:06:24;;;;;;;;;;;;;;;25.77;48.05;100291.59;5030866;28;19932;-70
2023/07/15 08:08:50;;;;;;;;;;;;;;;25.71;48.38;100295.31;5023273;28;20011;-69
2023/07/15 08:11:16;;;;;;;;;;;;;;;25.85;48.73;100290.22;5030403;28;19913;-70
2023/07/15 08:13:41;;;;;;;;;;;;;;;25.69;49.92;100291.34;5027958;28;20316;-70
2023/07/15 08:16:26;;;;;;;;;;;;;;;25.69;48.84;100299.28;5027745;28;19924;-70
2023/07/15 08:18:51;;;;;;;;;;;;;;;25.67;48.38;100293.47;5027433;28;19924;-70
2023/07/15 08:21:16;;;;;;;;;;;;;;;25.59;50.38;100300.13;5007466;28;19913;-70
2023/07/15 08:23:42;;;;;;;;;;;;;;;25.53;49.96;100307.28;5026359;28;19928;-70
2023/07/15 08:26:07;;;;;;;;;;;;;;;25.78;49.99;100306.44;5022253;28;19913;-70
2023/07/15 08:28:32;;;;;;;;;;;;;;;25.78;49.55;100318.91;5020278;28;19914;-70
2023/07/15 08:30:58;;;;;;;;;;;;;;;25.78;50.82;100317.06;5008162;28;19921;-70
2023/07/15 08:33:23;;;;;;;;;;;;;;;25.64;52.21;100316.81;5019272;28;19921;-71
2023/07/15 08:35:48;;;;;;;;;;;;;;;25.72;49.82;100323.44;4991249;28;19975;-70
2023/07/15 08:38:14;;;;;;;;;;;;;;;25.61;50.37;100319.22;5006675;28;19916;-70
2023/07/15 08:40:40;;;;;;;;;;;;;;;25.50;50.37;100312.34;5014948;28;19924;-70
2023/07/15 08:43:05;;;;;;;;;;;;;;;25.51;50.80;100316.59;5026145;28;20007;-70
2023/07/15 08:45:33;;;;;;;;;;;;;;;25.63;50.42;100320.53;5015273;28;20007;-70
2023/07/15 08:47:59;;;;;;;;;;;;;;;25.54;51.31;100329.31;5015560;28;19948;-70
2023/07/15 08:50:26;;;;;;;;;;;;;;;25.58;50.63;100335.66;5014483;28;19940;-69
2023/07/15 08:52:52;;;;;;;;;;;;;;;25.48;51.00;100335.69;5031269;28;19921;-69
2023/07/15 08:55:18;;;;;;;;;;;;;;;25.52;52.94;100344.69;5001899;28;19917;-70
2023/07/15 08:57:44;;;;;;;;;;;;;;;25.40;52.35;100345.78;5016929;28;19924;-70
2023/07/15 09:00:10;;;;;;;;;;;;;;;25.32;53.92;100348.19;5032585;28;19924;-70
2023/07/15 09:02:37;;;;;;;;;;;;;;;25.32;55.27;100356.13;5016549;28;19967;-70
2023/07/15 09:05:12;;;;;;;;;;;;;;;25.23;55.30;100363.81;5024919;28;19936;-70
2023/07/15 09:07:45;;;;;;;;;;;;;;;25.01;56.79;100366.66;5026946;28;20493;-71
2023/07/15 09:10:14;;;;;;;;;;;;;;;24.93;57.80;100375.13;5027833;28;19925;-69
2023/07/15 09:12:59;;;;;;;;;;;;;;;24.92;58.00;100379.66;5027234;28;19931;-70
2023/07/15 09:15:25;;;;;;;;;;;;;;;24.79;59.64;100380.13;5008915;28;20387;-70
2023/07/15 09:17:54;;;;;;;;;;;;;;;24.76;59.86;100378.81;5016328;28;19928;-71
2023/07/15 09:20:20;;;;;;;;;;;;;;;24.86;59.78;100375.38;5026987;28;20375;-71
2023/07/15 09:22:53;;;;;;;;;;;;;;;24.84;60.32;100375.63;5026693;28;19925;-70
2023/07/15 09:25:19;;;;;;;;;;;;;;;24.75;60.51;100387.00;5027049;28;19952;-70
2023/07/15 09:27:44;;;;;;;;;;;;;;;24.73;61.75;100392.56;5027248;28;19975;-70
2023/07/15 09:30:10;;;;;;;;;;;;;;;24.56;62.37;100392.75;5021293;28;19927;-71
2023/07/15 09:32:36;;;;;;;;;;;;;;;24.52;63.36;100394.34;5012469;28;19921;-70
2023/07/15 09:35:02;;;;;;;;;;;;;;;24.35;64.08;100397.16;5025297;28;19921;-70
2023/07/15 09:37:30;;;;;;;;;;;;;;;24.29;64.67;100385.72;5032215;28;20012;-70
2023/07/15 09:39:58;;;;;;;;;;;;;;;24.07;65.41;100391.19;5025163;28;19923;-70
2023/07/15 09:42:26;;;;;;;;;;;;;;;24.09;66.43;100401.50;5024027;28;20003;-70
2023/07/15 09:44:52;;;;;;;;;;;;;;;24.02;67.07;100385.06;5028836;28;19917;-70
2023/07/15 09:47:17;;;;;;;;;;;;;;;23.82;67.96;100391.00;5014081;28;21964;-69
2023/07/15 09:49:42;;;;;;;;;;;;;;;23.77;68.78;100389.09;5014045;28;19956;-70
2023/07/15 09:52:08;;;;;;;;;;;;;;;23.70;69.32;100381.38;5019615;28;19982;-70
2023/07/15 09:54:34;;;;;;;;;;;;;;;23.69;70.21;100381.63;5014882;28;20447;-70
2023/07/15 09:57:00;;;;;;;;;;;;;;;23.65;71.20;100391.13;5004685;28;20399;-70
2023/07/15 09:59:28;;;;;;;;;;;;;;;23.54;74.69;100397.38;5003154;28;19917;-70
2023/07/15 10:01:58;;;;;;;;;;;;;;;23.45;74.95;100387.25;5003678;28;19924;-70
2023/07/15 10:04:26;;;;;;;;;;;;;;;23.40;76.70;100395.16;5004148;28;19917;-70
2023/07/15 10:06:52;;;;;;;;;;;;;;;23.52;76.55;100373.81;5004620;28;20119;-70
2023/07/15 10:09:18;;;;;;;;;;;;;;;23.63;75.64;100369.41;5004531;28;20396;-70
2023/07/15 10:11:43;;;;;;;;;;;;;;;23.64;75.70;100357.75;5023095;28;19928;-70
2023/07/15 10:14:09;;;;;;;;;;;;;;;23.54;76.13;100358.47;5020117;28;20015;-70
2023/07/15 10:16:34;;;;;;;;;;;;;;;23.44;76.63;100379.56;5007950;28;20391;-70
2023/07/15 10:19:01;;;;;;;;;;;;;;;23.71;76.63;100379.50;5011949;28;19917;-70
2023/07/15 10:21:27;;;;;;;;;;;;;;;24.15;76.02;100379.31;5016252;28;20462;-69
2023/07/15 10:24:05;;;;;;;;;;;;;;;24.44;73.50;100392.16;5031381;28;20008;-70
2023/07/15 10:26:30;;;;;;;;;;;;;;;24.41;73.71;100387.38;5019049;28;19913;-70
2023/07/15 10:28:58;;;;;;;;;;;;;;;24.61;74.13;100395.44;5029932;28;19923;-70
2023/07/15 10:31:24;;;;;;;;;;;;;;;24.78;74.12;100381.19;5012659;28;19917;-70
2023/07/15 10:33:54;;;;;;;;;;;;;;;24.61;73.82;100374.25;5027499;28;19924;-70
2023/07/15 10:36:40;;;;;;;;;;;;;;;24.67;73.14;100375.06;5034244;28;20363;-70
2023/07/15 10:39:10;;;;;;;;;;;;;;;24.90;73.85;100379.09;5028964;28;20287;-71
2023/07/15 10:41:40;;;;;;;;;;;;;;;25.48;73.36;100370.19;5016902;28;19936;-70
2023/07/15 10:44:14;;;;;;;;;;;;;;;25.74;72.83;100366.44;5032236;28;20264;-69
2023/07/15 10:46:39;;;;;;;;;;;;;;;26.26;70.25;100363.69;4980663;28;19921;-71
2023/07/15 10:49:04;;;;;;;;;;;;;;;26.48;67.17;100358.03;5013736;28;19918;-70
2023/07/15 10:51:31;;;;;;;;;;;;;;;26.79;67.11;100372.00;5006635;28;20334;-70
2023/07/15 10:53:56;;;;;;;;;;;;;;;27.00;65.56;100378.78;5003127;28;19924;-70
2023/07/15 10:56:22;;;;;;;;;;;;;;;27.02;63.90;100381.16;5008130;28;19917;-70
2023/07/15 10:58:47;;;;;;;;;;;;;;;26.89;63.97;100371.94;5005435;28;19959;-70
2023/07/15 11:01:12;;;;;;;;;;;;;;;26.76;64.47;100378.66;5006425;28;20431;-71
2023/07/15 11:03:39;;;;;;;;;;;;;;;26.53;65.42;100371.31;5005769;28;19917;-71
2023/07/15 11:06:05;;;;;;;;;;;;;;;26.29;64.57;100360.50;5002799;28;19914;-71
2023/07/15 11:08:31;;;;;;;;;;;;;;;26.41;64.29;100372.41;5006434;28;19929;-72
2023/07/15 11:11:04;;;;;;;;;;;;;;;26.40;65.01;100370.03;5021431;28;19944;-71
2023/07/15 11:13:29;;;;;;;;;;;;;;;26.65;64.14;100371.00;5005217;28;19917;-71
2023/07/15 11:15:55;;;;;;;;;;;;;;;27.16;64.05;100384.00;5008648;28;19921;-71
2023/07/15 11:18:21;;;;;;;;;;;;;;;27.39;61.83;100366.56;5021547;28;20300;-71
2023/07/15 11:20:47;;;;;;;;;;;;;;;27.48;60.67;100358.75;5005167;28;19964;-71
2023/07/15 11:23:13;;;;;;;;;;;;;;;27.28;60.79;100373.06;5004998;28;19972;-70
2023/07/15 11:25:39;;;;;;;;;;;;;;;27.15;60.79;100374.44;5003817;28;19975;-71
2023/07/15 11:28:05;;;;;;;;;;;;;;;27.08;61.36;100373.94;5006283;28;19917;-72
2023/07/15 11:30:39;;;;;;;;;;;;;;;27.02;61.06;100373.19;5003622;28;20287;-71
2023/07/15 11:33:05;;;;;;;;;;;;;;;27.05;61.34;100366.50;5003295;28;19913;-71
2023/07/15 11:35:32;;;;;;;;;;;;;;;27.09;62.24;100363.03;5006282;28;19921;-71
2023/07/15 11:37:58;;;;;;;;;;;;;;;27.55;59.56;100362.69;5004756;28;19925;-70
2023/07/15 11:40:23;;;;;;;;;;;;;;;27.75;59.74;100359.06;5004822;28;19917;-71
2023/07/15 11:42:48;;;;;;;;;;;;;;;27.85;56.80;100342.16;5002470;28;20394;-70
2023/07/15 11:45:14;;;;;;;;;;;;;;;27.84;58.45;100335.28;5004662;28;19921;-71
2023/07/15 11:47:41;;;;;;;;;;;;;;;27.50;59.26;100343.31;5005556;28;20461;-72
2023/07/15 11:50:10;;;;;;;;;;;;;;;27.39;58.87;100342.63;5003137;28;19917;-71
2023/07/15 11:52:40;;;;;;;;;;;;;;;27.47;58.18;100346.53;5006385;28;19913;-71
2023/07/15 11:55:06;;;;;;;;;;;;;;;27.45;58.86;100343.38;5004817;28;20023;-71
2023/07/15 11:57:31;;;;;;;;;;;;;;;26.96;59.56;100359.13;5009062;28;19964;-70
2023/07/15 11:59:56;;;;;;;;;;;;;;;26.79;60.77;100348.88;5004877;28;19999;-69
2023/07/15 12:02:21;;;;;;;;;;;;;;;26.82;61.39;100355.47;5001746;28;20376;-69
2023/07/15 12:04:48;;;;;;;;;;;;;;;26.79;62.09;100353.41;5004367;28;19925;-70
2023/07/15 12:07:13;;;;;;;;;;;;;;;26.87;62.31;100344.81;5001994;28;19914;-71
2023/07/15 12:09:39;;;;;;;;;;;;;;;26.81;62.26;100345.94;5005466;28;19925;-70
2023/07/15 12:12:05;;;;;;;;;;;;;;;26.84;61.31;100333.94;5003221;28;20303;-71
2023/07/15 12:14:31;;;;;;;;;;;;;;;26.98;60.80;100334.91;5004453;28;19925;-70
2023/07/15 12:16:59;;;;;;;;;;;;;;;27.22;59.63;100334.19;5021571;28;19940;-70
2023/07/15 12:19:25;;;;;;;;;;;;;;;27.49;60.31;100328.41;5004180;28;19924;-71
2023/07/15 12:21:51;;;;;;;;;;;;;;;27.76;60.99;100335.88;5004635;28;20585;-71
2023/07/15 12:24:16;;;;;;;;;;;;;;;27.53;63.02;100321.47;5004140;28;19917;-71
2023/07/15 12:26:42;;;;;;;;;;;;;;;27.27;63.85;100334.97;5004827;28;19917;-71